Etusivu
METAR-TAF:

METAR-TAF

Lentoasemat :

Bisha, Saudi-Arabia

Leveyspiiri: 19-59N, Pituuspiiri: 042-37E, korkeus merenpinnasta: 1167 m

Tämänhetkinen sää

Tämä raportti tehtiin 41 minuuttia sitten, kello 16.00 UTC
Tuuli 3 kn lännestä/lounaasta
Lämpötila 26°C
Kosteus 42%
Ilmanpaine 1015 hPa
Näkyvyys 10 km tai enemmän
Muutamia pilviä 3000 ft:n korkeudessa
Hajanaisia pilviä 10000 ft:n korkeudessa

METAR: OEBH 251600Z 24003KT 9999 FEW030 SCT100 26/12 Q1015 NOSIG

Aika: 19:41 (16:41 UTC)

Sääennuste

Tämä raportti tehtiin 5 tuntia ja 41 minuuttia sitten, kello 11.00 UTC
Ennuste voimassa 25. päivästä klo 12 UTC - 26. päivään klo 18 UTC
Tuuli 10 kn lännestä/lounaasta puuskistuen 20 kn:hen
Näkyvyys: 7000 m
Tulossa
25. päivästä klo 18 UTC - 25. päivään klo 20 UTC
Tuuli 3 kn eri suunnista

TAF: OEBH 251100Z 2512/2618 24010G20KT 7000 NSC BECMG 2518/2520 VRB03KT

Säähavainnot ja -ennusteet yli 4000 lentoasemalta (METAR- ja TAF-raportit).

Käytössä olevat sääasemat on merkitty karttaan keltaisilla ja punaisilla pisteillä.

Aseta hiiri pisteen päälle nähdäksesi sääaseman nimen.

Klikkaa sitten nähdäksesi säähavainnot ja -ennusteet.

Kartan vaihtaminen: klikkaa mustalla rastilla varustettuja vihreitä pisteitä, niin voit zoomata sisään; viivalla varustettua vihreää pistettä, niin voit zoomata ulos tai vihreitä nuolia, niin pääset viereisille kartoille.


METAR-TAF: